Time;durP1;ratioP1;P1;durP2;ratioP2;P2;SDS_P1;SDS_P2;PMS_P1;PMS_P2;Temp;Humidity;BMP_temperature;BMP_pressure;BME280_temperature;BME280_humidity;BME280_pressure;Samples;Min_cycle;Max_cycle;Signal;HPM_P1;HPM_P2
2021/10/09 00:01:48;;;;;;;5.88;2.22;;;;;;;-144.51;100.00;69251.94;5108610;28;20035;-63
2021/10/09 00:04:33;;;;;;;;;;;;;;;-144.51;100.00;69251.94;5115190;28;20039;-64
2021/10/09 00:07:17;;;;;;;5.10;3.10;;;;;;;-144.51;100.00;69251.94;5113213;28;19911;-64
2021/10/09 00:10:05;;;;;;;11.77;3.13;;;;;;;-144.51;100.00;69251.94;5112760;27;20047;-64
2021/10/09 00:12:51;;;;;;;4.57;2.70;;;;;;;-144.51;100.00;69251.94;5114849;28;20555;-64
2021/10/09 00:15:36;;;;;;;6.95;2.90;;;;;;;-144.51;100.00;69251.94;5109986;28;20035;-64
2021/10/09 00:18:21;;;;;;;7.22;2.70;;;;;;;-144.51;100.00;69251.94;5107129;28;20409;-63
2021/10/09 00:21:05;;;;;;;;;;;;;;;-144.51;100.00;69251.94;5115374;28;20043;-63
2021/10/09 00:23:50;;;;;;;6.32;2.30;;;;;;;-144.51;100.00;69251.94;5111532;28;19912;-63
2021/10/09 00:26:35;;;;;;;;;;;;;;;-144.51;100.00;69251.94;5111360;28;20044;-63
2021/10/09 00:29:38;;;;;;;5.45;2.95;;;;;;;-144.51;100.00;69251.94;5113179;28;20374;-63
2021/10/09 00:32:23;;;;;;;8.93;2.50;;;;;;;-144.51;100.00;69251.94;5108474;28;20479;-63
2021/10/09 00:35:08;;;;;;;;;;;;;;;-144.51;100.00;69251.94;5109551;28;20399;-64
2021/10/09 00:37:52;;;;;;;5.32;2.63;;;;;;;-144.51;100.00;69251.94;5112557;28;20386;-64
2021/10/09 00:40:37;;;;;;;5.70;2.80;;;;;;;-144.51;100.00;69251.94;5112484;28;20487;-64
2021/10/09 00:43:22;;;;;;;;;;;;;;;-144.51;100.00;69251.94;5122217;22;20044;-63
2021/10/09 00:49:17;;;;;;;4.38;2.53;;;;;;;-144.51;100.00;69251.94;5103680;28;20039;-64
2021/10/09 00:52:04;;;;;;;4.40;2.67;;;;;;;-144.51;100.00;69251.94;5113310;28;20036;-63
2021/10/09 00:58:32;;;;;;;8.80;3.72;;;;;;;-144.51;100.00;69251.94;5098222;28;20399;-64
2021/10/09 01:01:18;;;;;;;5.75;2.67;;;;;;;-144.51;100.00;69251.94;5105395;28;20035;-63
2021/10/09 01:04:05;;;;;;;5.07;3.00;;;;;;;-144.51;100.00;69251.94;5099621;28;20048;-63
2021/10/09 01:06:50;;;;;;;4.88;2.50;;;;;;;-144.51;100.00;69251.94;5111040;28;20032;-63
2021/10/09 01:09:35;;;;;;;;;;;;;;;-144.51;100.00;69251.94;5100159;28;20036;-63
2021/10/09 01:12:21;;;;;;;5.10;2.50;;;;;;;-144.51;100.00;69251.94;5097881;28;19912;-64
2021/10/09 01:15:21;;;;;;;6.25;2.58;;;;;;;-144.51;100.00;69251.94;5111350;28;20043;-63
2021/10/09 01:18:20;;;;;;;5.32;2.75;;;;;;;-144.51;100.00;69251.94;5119242;28;20035;-63
2021/10/09 01:21:14;;;;;;;3.55;2.33;;;;;;;-144.51;100.00;69251.94;5113406;28;20028;-63
2021/10/09 01:24:03;;;;;;;4.97;2.60;;;;;;;-144.51;100.00;69251.94;5104493;28;20502;-63
2021/10/09 01:26:48;;;;;;;7.07;2.60;;;;;;;-144.51;100.00;69251.94;5111182;28;20039;-63
2021/10/09 01:29:36;;;;;;;6.15;2.35;;;;;;;-144.51;100.00;69251.94;5117196;28;20044;-62
2021/10/09 01:32:21;;;;;;;;;;;;;;;-144.51;100.00;69251.94;5110178;28;20047;-64
2021/10/09 01:35:07;;;;;;;6.13;2.63;;;;;;;-144.51;100.00;69251.94;5115978;28;20259;-64
2021/10/09 01:37:53;;;;;;;6.15;2.47;;;;;;;-144.51;100.00;69251.94;5105006;28;20647;-64
2021/10/09 01:40:38;;;;;;;5.05;2.08;;;;;;;-144.51;100.00;69251.94;5109488;28;20040;-63
2021/10/09 01:43:25;;;;;;;5.65;2.75;;;;;;;-144.51;100.00;69251.94;5112597;28;20478;-64
2021/10/09 01:46:10;;;;;;;5.05;2.97;;;;;;;-144.51;100.00;69251.94;5114122;28;20039;-64
2021/10/09 01:48:55;;;;;;;5.53;2.92;;;;;;;-144.51;100.00;69251.94;5109059;28;20036;-64
2021/10/09 01:51:40;;;;;;;7.57;3.13;;;;;;;-144.51;100.00;69251.94;5100306;28;20036;-64
2021/10/09 01:54:26;;;;;;;3.88;2.58;;;;;;;-144.51;100.00;69251.94;5112144;28;20398;-63
2021/10/09 01:57:11;;;;;;;9.48;2.65;;;;;;;-144.51;100.00;69251.94;5117963;28;20398;-63
2021/10/09 01:59:56;;;;;;;8.38;2.75;;;;;;;-144.51;100.00;69251.94;5104571;28;20039;-63
2021/10/09 02:02:45;;;;;;;6.50;3.15;;;;;;;-144.51;100.00;69251.94;5101026;28;20040;-63
2021/10/09 02:05:33;;;;;;;6.20;2.83;;;;;;;-144.51;100.00;69251.94;5097476;28;20040;-63
2021/10/09 02:08:37;;;;;;;6.55;3.22;;;;;;;-144.51;100.00;69251.94;5116316;28;20039;-63
2021/10/09 02:11:25;;;;;;;4.28;2.60;;;;;;;-144.51;100.00;69251.94;5098751;28;20036;-63
2021/10/09 02:14:23;;;;;;;7.82;2.88;;;;;;;-144.51;100.00;69251.94;5112464;28;20044;-63
2021/10/09 02:26:08;;;;;;;7.47;2.63;;;;;;;-144.51;100.00;69251.94;5112923;28;20040;-63
2021/10/09 02:28:54;;;;;;;7.80;2.17;;;;;;;-144.51;100.00;69251.94;5097644;28;20044;-63
2021/10/09 02:31:39;;;;;;;166.98;28.23;;;;;;;-144.51;100.00;69251.94;5111875;28;20039;-63
2021/10/09 02:34:29;;;;;;;230.85;42.45;;;;;;;-144.51;100.00;69251.94;5121100;28;20032;-63
2021/10/09 02:37:14;;;;;;;;;;;;;;;-144.51;100.00;69251.94;5121475;28;20437;-63
2021/10/09 02:40:20;;;;;;;76.53;16.00;;;;;;;-144.51;100.00;69251.94;5115127;28;19916;-63
2021/10/09 02:49:31;;;;;;;30.77;7.32;;;;;;;-144.51;100.00;69251.94;5108180;28;20421;-63
2021/10/09 02:52:16;;;;;;;;;;;;;;;-144.51;100.00;69251.94;5122290;28;20039;-63
2021/10/09 02:55:20;;;;;;;13.95;3.92;;;;;;;-144.51;100.00;69251.94;5120879;28;19912;-63
2021/10/09 02:58:08;;;;;;;8.90;3.10;;;;;;;-144.51;100.00;69251.94;5119638;28;20036;-63
2021/10/09 03:00:53;;;;;;;11.05;3.05;;;;;;;-144.51;100.00;69251.94;5121708;28;20047;-63
2021/10/09 03:03:38;;;;;;;10.20;4.45;;;;;;;-144.51;100.00;69251.94;5120617;28;20039;-64
2021/10/09 03:06:23;;;;;;;;;;;;;;;-144.51;100.00;69251.94;5115214;28;20047;-64
2021/10/09 03:09:08;;;;;;;8.68;2.80;;;;;;;-144.51;100.00;69251.94;5114616;28;19912;-63
2021/10/09 03:11:55;;;;;;;6.10;2.63;;;;;;;-144.51;100.00;69251.94;5120320;28;20039;-62
2021/10/09 03:14:59;;;;;;;6.40;2.92;;;;;;;-144.51;100.00;69251.94;5094103;28;20044;-62
2021/10/09 03:17:45;;;;;;;7.13;3.15;;;;;;;-144.51;100.00;69251.94;5099880;28;20047;-62
2021/10/09 03:20:29;;;;;;;6.85;3.28;;;;;;;-144.51;100.00;69251.94;5106817;28;20043;-62
2021/10/09 03:23:14;;;;;;;10.50;3.70;;;;;;;-144.51;100.00;69251.94;5114388;28;20047;-62
2021/10/09 03:26:18;;;;;;;4.70;3.15;;;;;;;-144.51;100.00;69251.94;5113994;28;20039;-62
2021/10/09 03:29:03;;;;;;;8.27;3.20;;;;;;;-144.51;100.00;69251.94;5115944;28;20051;-62
2021/10/09 03:34:53;;;;;;;6.55;2.75;;;;;;;-144.51;100.00;69251.94;5114264;28;20044;-62
2021/10/09 03:37:38;;;;;;;;;;;;;;;-144.51;100.00;69251.94;5120290;28;20043;-62
2021/10/09 03:40:24;;;;;;;5.57;2.92;;;;;;;-144.51;100.00;69251.94;5120068;28;19915;-62
2021/10/09 03:43:16;;;;;;;4.82;3.00;;;;;;;-144.51;100.00;69251.94;5119244;28;20043;-62
2021/10/09 03:46:24;;;;;;;8.65;2.92;;;;;;;-144.51;100.00;69251.94;5119749;28;20043;-62
2021/10/09 03:49:25;;;;;;;9.73;3.55;;;;;;;-144.51;100.00;69251.94;5113736;28;20040;-63
2021/10/09 03:55:32;;;;;;;6.68;3.03;;;;;;;-144.51;100.00;69251.94;5120361;28;20043;-63
2021/10/09 03:58:16;;;;;;;3.97;2.83;;;;;;;-144.51;100.00;69251.94;5119097;28;20039;-63
2021/10/09 04:01:01;;;;;;;;;;;;;;;-144.51;100.00;69251.94;5120833;28;20043;-63
2021/10/09 04:03:46;;;;;;;4.67;2.93;;;;;;;-144.51;100.00;69251.94;5117106;28;19911;-63
2021/10/09 04:06:31;;;;;;;7.60;3.22;;;;;;;-144.51;100.00;69251.94;5120482;28;20048;-62
2021/10/09 04:09:16;;;;;;;;;;;;;;;-144.51;100.00;69251.94;5115526;28;20040;-62
2021/10/09 04:12:01;;;;;;;4.78;2.75;;;;;;;-144.51;100.00;69251.94;5119515;28;20316;-62
2021/10/09 04:14:46;;;;;;;3.65;2.80;;;;;;;-144.51;100.00;69251.94;5119302;28;20043;-63
2021/10/09 04:17:31;;;;;;;9.80;2.75;;;;;;;-144.51;100.00;69251.94;5119106;28;20040;-62
2021/10/09 04:20:16;;;;;;;;;;;;;;;-144.51;100.00;69251.94;5119651;28;20039;-62
2021/10/09 04:23:04;;;;;;;4.63;3.08;;;;;;;-144.51;100.00;69251.94;5119351;28;20304;-62
2021/10/09 04:25:50;;;;;;;7.32;2.67;;;;;;;-144.51;100.00;69251.94;5113321;28;20035;-62
2021/10/09 04:28:54;;;;;;;4.72;2.80;;;;;;;-144.51;100.00;69251.94;5117789;28;20047;-62
2021/10/09 04:31:39;;;;;;;6.15;2.67;;;;;;;-144.51;100.00;69251.94;5119950;28;20044;-62
2021/10/09 04:34:24;;;;;;;9.27;3.45;;;;;;;-144.51;100.00;69251.94;5119333;28;20043;-62
2021/10/09 04:37:10;;;;;;;3.97;2.42;;;;;;;-144.51;100.00;69251.94;5118581;28;20048;-62
2021/10/09 04:39:55;;;;;;;;;;;;;;;-144.51;100.00;69251.94;5113524;28;20044;-62
2021/10/09 04:42:41;;;;;;;6.43;2.53;;;;;;;-144.51;100.00;69251.94;5118609;28;20294;-62
2021/10/09 04:45:26;;;;;;;4.55;3.15;;;;;;;-144.51;100.00;69251.94;5119264;28;20044;-62
2021/10/09 04:48:11;;;;;;;;;;;;;;;-144.51;100.00;69251.94;5113462;28;20035;-62
2021/10/09 04:51:15;;;;;;;4.15;2.50;;;;;;;-144.51;100.00;69251.94;5119853;28;19916;-62
2021/10/09 04:54:00;;;;;;;4.75;2.70;;;;;;;-144.51;100.00;69251.94;5113049;28;20036;-62
2021/10/09 04:56:45;;;;;;;6.93;2.47;;;;;;;-144.51;100.00;69251.94;5113945;28;20039;-62
2021/10/09 04:59:30;;;;;;;6.38;2.60;;;;;;;-144.51;100.00;69251.94;5114039;28;20031;-62
2021/10/09 05:05:18;;;;;;;7.00;2.47;;;;;;;-144.51;100.00;69251.94;5118899;28;19911;-62
2021/10/09 05:08:03;;;;;;;;;;;;;;;-144.51;100.00;69251.94;5112445;28;20039;-62
2021/10/09 05:11:09;;;;;;;3.53;2.23;;;;;;;-144.51;100.00;69251.94;5118745;28;19912;-62
2021/10/09 05:13:55;;;;;;;5.28;2.58;;;;;;;-144.51;100.00;69251.94;5118647;28;20058;-62
2021/10/09 05:16:40;;;;;;;4.43;2.35;;;;;;;-144.51;100.00;69251.94;5117733;28;20499;-63
2021/10/09 05:19:25;;;;;;;5.55;2.72;;;;;;;-144.51;100.00;69251.94;5114043;28;20502;-62
2021/10/09 05:22:30;;;;;;;4.50;2.13;;;;;;;-144.51;100.00;69251.94;5112831;28;20051;-62
2021/10/09 05:25:15;;;;;;;4.47;2.28;;;;;;;-144.51;100.00;69251.94;5118497;28;20031;-62
2021/10/09 05:30:47;;;;;;;9.18;2.38;;;;;;;-144.51;100.00;69251.94;5098236;28;20048;-62
2021/10/09 05:36:22;;;;;;;8.25;3.08;;;;;;;-144.51;100.00;69251.94;5097924;28;20048;-63
2021/10/09 05:39:07;;;;;;;5.18;2.58;;;;;;;-144.51;100.00;69251.94;5111421;28;20039;-63
2021/10/09 05:41:53;;;;;;;7.43;2.60;;;;;;;-144.51;100.00;69251.94;5106859;28;20044;-63
2021/10/09 05:44:38;;;;;;;;;;;;;;;-144.51;100.00;69251.94;5110281;28;20040;-63
2021/10/09 05:47:25;;;;;;;3.38;2.03;;;;;;;-144.51;100.00;69251.94;5112496;27;19912;-63
2021/10/09 05:50:12;;;;;;;5.60;2.63;;;;;;;-144.51;100.00;69251.94;5096129;28;20036;-63
2021/10/09 05:55:55;;;;;;;4.80;2.90;;;;;;;-144.51;100.00;69251.94;5103134;28;20044;-63
2021/10/09 05:58:53;;;;;;;7.07;2.67;;;;;;;-144.51;100.00;69251.94;5119313;28;20043;-63
2021/10/09 07:00:43;;;;;;;5.32;2.20;;;;;;;-144.51;100.00;69251.94;5107471;28;20043;-81
2021/10/09 07:03:28;;;;;;;;;;;;;;;-144.51;100.00;69251.94;5137323;27;20035;-82
2021/10/09 07:06:19;;;;;;;9.07;2.08;;;;;;;-144.51;100.00;69251.94;5108688;28;19919;-82
2021/10/09 07:09:16;;;;;;;4.90;2.13;;;;;;;-144.51;100.00;69251.94;5114246;28;20040;-81
2021/10/09 07:15:12;;;;;;;9.25;2.28;;;;;;;-144.51;100.00;69251.94;5113760;28;20039;-83
2021/10/09 07:17:57;;;;;;;3.17;2.35;;;;;;;-144.51;100.00;69251.94;5116283;28;20043;-83
2021/10/09 07:20:42;;;;;;;8.15;2.47;;;;;;;-144.51;100.00;69251.94;5123890;28;20047;-82
2021/10/09 07:23:28;;;;;;;4.28;2.65;;;;;;;-144.51;100.00;69251.94;5114989;28;20032;-82
2021/10/09 07:26:13;;;;;;;7.43;2.40;;;;;;;-144.51;100.00;69251.94;5116526;28;20039;-82
2021/10/09 07:28:58;;;;;;;5.18;2.25;;;;;;;-144.51;100.00;69251.94;5116549;28;20036;-82
2021/10/09 07:32:02;;;;;;;5.22;2.70;;;;;;;-144.51;100.00;69251.94;5113387;28;20047;-83
2021/10/09 07:34:47;;;;;;;;;;;;;;;-144.51;100.00;69251.94;5116243;28;20044;-83
2021/10/09 07:37:31;;;;;;;6.43;2.55;;;;;;;-144.51;100.00;69251.94;5119966;28;19912;-80
2021/10/09 07:40:18;;;;;;;;;;;;;;;-144.51;100.00;69251.94;5123947;28;20043;-82
2021/10/09 07:43:03;;;;;;;14.38;2.65;;;;;;;-144.51;100.00;69251.94;5128891;27;19920;-82
2021/10/09 07:45:48;;;;;;;;;;;;;;;-144.51;100.00;69251.94;5124819;28;20043;-81
2021/10/09 07:48:33;;;;;;;9.10;2.53;;;;;;;-144.51;100.00;69251.94;5122851;28;19919;-83
2021/10/09 07:51:18;;;;;;;3.83;2.35;;;;;;;-144.51;100.00;69251.94;5125273;28;20492;-82
2021/10/09 07:54:04;;;;;;;15.02;2.88;;;;;;;-144.51;100.00;69251.94;5127890;28;20052;-82
2021/10/09 07:57:07;;;;;;;13.38;2.75;;;;;;;-144.51;100.00;69251.94;5113862;27;20040;-82
2021/10/09 07:59:53;;;;;;;7.70;2.40;;;;;;;-144.51;100.00;69251.94;5105365;28;20052;-83
2021/10/09 08:02:45;;;;;;;5.18;2.20;;;;;;;-144.51;100.00;69251.94;5110762;28;20040;-81
2021/10/09 08:05:33;;;;;;;4.30;2.45;;;;;;;-144.51;100.00;69251.94;5110853;28;20040;-81
2021/10/09 08:08:19;;;;;;;8.60;2.38;;;;;;;-144.51;100.00;69251.94;5111290;28;20043;-82
2021/10/09 08:11:04;;;;;;;10.20;2.38;;;;;;;-144.51;100.00;69251.94;5107919;28;20784;-81
2021/10/09 08:16:52;;;;;;;20.00;2.58;;;;;;;-144.51;100.00;69251.94;5107534;28;19912;-83
2021/10/09 08:19:37;;;;;;;;;;;;;;;-144.51;100.00;69251.94;5108067;28;20409;-83
2021/10/09 08:22:45;;;;;;;4.97;2.33;;;;;;;-144.51;100.00;69251.94;5120703;28;19911;-83
2021/10/09 08:40:41;;;;;;;7.57;2.67;;;;;;;-144.51;100.00;69251.94;5112363;28;20044;-81
2021/10/09 08:43:26;;;;;;;7.38;2.80;;;;;;;-144.51;100.00;69251.94;5120113;28;20515;-81
2021/10/09 08:46:11;;;;;;;9.13;2.55;;;;;;;-144.51;100.00;69251.94;5122597;28;20035;-82
2021/10/09 08:48:56;;;;;;;13.25;2.13;;;;;;;-144.51;100.00;69251.94;5112824;28;20028;-81
2021/10/09 08:51:41;;;;;;;12.52;2.42;;;;;;;-144.51;100.00;69251.94;5121099;28;20043;-82
2021/10/09 08:54:34;;;;;;;6.78;2.75;;;;;;;-144.51;100.00;69251.94;5121693;28;20036;-82
2021/10/09 08:57:24;;;;;;;8.98;2.55;;;;;;;-144.51;100.00;69251.94;5117127;28;20040;-82
2021/10/09 09:00:11;;;;;;;5.30;2.20;;;;;;;-144.51;100.00;69251.94;5113573;28;20032;-81
2021/10/09 09:03:10;;;;;;;5.35;1.85;;;;;;;-144.51;100.00;69251.94;5114827;28;20039;-81
2021/10/09 09:06:15;;;;;;;5.40;2.90;;;;;;;-144.51;100.00;69251.94;5116303;28;20035;-82
2021/10/09 09:33:38;;;;;;;6.40;2.42;;;;;;;-144.51;100.00;69251.94;5123040;28;20044;-81
2021/10/09 09:39:11;;;;;;;10.32;2.05;;;;;;;-144.51;100.00;69251.94;5122102;28;20047;-82
2021/10/09 09:41:56;;;;;;;3.65;1.98;;;;;;;-144.51;100.00;69251.94;5124556;28;20040;-82
2021/10/09 09:44:56;;;;;;;4.63;2.35;;;;;;;-144.51;100.00;69251.94;5122393;28;20052;-82
2021/10/09 09:47:41;;;;;;;3.05;1.77;;;;;;;-144.51;100.00;69251.94;5124289;28;20036;-82
2021/10/09 09:50:28;;;;;;;4.53;2.20;;;;;;;-144.51;100.00;69251.94;5121555;28;20043;-82
2021/10/09 09:53:14;;;;;;;5.47;1.73;;;;;;;-144.51;100.00;69251.94;5112805;28;20036;-82
2021/10/09 09:56:00;;;;;;;3.47;1.85;;;;;;;-144.51;100.00;69251.94;5115183;28;20039;-81
2021/10/09 09:58:54;;;;;;;9.27;2.08;;;;;;;-144.51;100.00;69251.94;5120340;28;20039;-83
2021/10/09 10:01:38;;;;;;;3.95;1.92;;;;;;;-144.51;100.00;69251.94;5111833;28;20048;-81
2021/10/09 10:04:24;;;;;;;;;;;;;;;-144.51;100.00;69251.94;5118714;28;20048;-82
2021/10/09 10:07:08;;;;;;;2.55;1.98;;;;;;;-144.51;100.00;69251.94;5116155;28;19919;-81
2021/10/09 10:09:53;;;;;;;;;;;;;;;-144.51;100.00;69251.94;5121321;28;20036;-81
2021/10/09 10:12:39;;;;;;;8.25;1.65;;;;;;;-144.51;100.00;69251.94;5126062;28;20376;-82
2021/10/09 10:15:29;;;;;;;5.20;2.25;;;;;;;-144.51;100.00;69251.94;5116073;28;20036;-81
2021/10/09 10:18:43;;;;;;;4.70;2.30;;;;;;;-144.51;100.00;69251.94;5115534;28;20043;-81
2021/10/09 10:21:37;;;;;;;4.70;1.63;;;;;;;-144.51;100.00;69251.94;5122858;28;20040;-82
2021/10/09 10:24:42;;;;;;;13.13;2.25;;;;;;;-144.51;100.00;69251.94;5121616;28;20036;-81
2021/10/09 10:27:44;;;;;;;4.70;2.08;;;;;;;-144.51;100.00;69251.94;5120919;28;20032;-81
2021/10/09 10:30:36;;;;;;;8.88;2.60;;;;;;;-144.51;100.00;69251.94;5120637;28;20039;-82
2021/10/09 10:33:21;;;;;;;5.53;2.05;;;;;;;-144.51;100.00;69251.94;5117716;28;20500;-82
2021/10/09 10:36:45;;;;;;;7.47;2.15;;;;;;;-144.51;100.00;69251.94;5121436;28;20048;-81
2021/10/09 10:39:48;;;;;;;4.03;1.80;;;;;;;-144.51;100.00;69251.94;5114218;28;20031;-82
2021/10/09 10:42:33;;;;;;;6.82;2.33;;;;;;;-144.51;100.00;69251.94;5115570;28;20040;-82
2021/10/09 10:45:32;;;;;;;;;;;;;;;-144.51;100.00;69251.94;5115438;28;20044;-81
2021/10/09 10:49:36;;;;;;;7.68;1.90;;;;;;;-144.51;100.00;69251.94;5119200;28;19911;-81
2021/10/09 10:52:41;;;;;;;6.90;1.73;;;;;;;-144.51;100.00;69251.94;5114022;28;20043;-82
2021/10/09 10:55:26;;;;;;;7.75;2.03;;;;;;;-144.51;100.00;69251.94;5118196;28;20035;-82
2021/10/09 10:58:22;;;;;;;5.90;2.00;;;;;;;-144.51;100.00;69251.94;5110938;28;20040;-82
2021/10/09 11:01:19;;;;;;;11.57;2.10;;;;;;;-144.51;100.00;69251.94;5113860;28;20716;-82
2021/10/09 11:04:03;;;;;;;5.10;2.35;;;;;;;-144.51;100.00;69251.94;5116202;28;20725;-82
2021/10/09 11:06:48;;;;;;;5.63;1.83;;;;;;;-144.51;100.00;69251.94;5124213;28;20040;-83
2021/10/09 11:09:35;;;;;;;4.85;2.03;;;;;;;-144.51;100.00;69251.94;5120356;28;20031;-83
2021/10/09 11:12:25;;;;;;;3.35;1.55;;;;;;;-144.51;100.00;69251.94;5121221;28;20044;-83
2021/10/09 11:15:31;;;;;;;4.70;2.33;;;;;;;-144.51;100.00;69251.94;5117391;28;20511;-83
2021/10/09 11:18:16;;;;;;;8.02;2.58;;;;;;;-144.51;100.00;69251.94;5124662;28;20039;-83
2021/10/09 11:21:01;;;;;;;2.53;1.85;;;;;;;-144.51;100.00;69251.94;5113678;28;20036;-82
2021/10/09 11:24:05;;;;;;;6.78;2.00;;;;;;;-144.51;100.00;69251.94;5116653;28;20051;-81
2021/10/09 11:27:09;;;;;;;3.85;1.90;;;;;;;-144.51;100.00;69251.94;5113506;28;20040;-83
2021/10/09 11:30:07;;;;;;;11.55;2.45;;;;;;;-144.51;100.00;69251.94;5120698;28;20032;-83
2021/10/09 11:32:55;;;;;;;5.68;1.95;;;;;;;-144.51;100.00;69251.94;5118205;28;20031;-83
2021/10/09 11:35:41;;;;;;;6.78;2.63;;;;;;;-144.51;100.00;69251.94;5118524;28;20500;-82
2021/10/09 11:38:30;;;;;;;3.50;2.05;;;;;;;-144.51;100.00;69251.94;5125894;28;20035;-82
2021/10/09 11:41:20;;;;;;;8.27;2.72;;;;;;;-144.51;100.00;69251.94;5119161;28;20040;-82
2021/10/09 11:44:21;;;;;;;7.32;2.30;;;;;;;-144.51;100.00;69251.94;5115713;28;20035;-82
2021/10/09 11:56:20;;;;;;;9.35;1.98;;;;;;;-144.51;100.00;69251.94;5114678;28;20047;-83
2021/10/09 11:59:06;;;;;;;3.00;2.08;;;;;;;-144.51;100.00;69251.94;5119584;28;20039;-82
2021/10/09 12:01:52;;;;;;;6.72;2.28;;;;;;;-144.51;100.00;69251.94;5115216;28;20040;-82
2021/10/09 12:04:59;;;;;;;5.95;1.73;;;;;;;-144.51;100.00;69251.94;5116129;28;20036;-82
2021/10/09 12:08:15;;;;;;;5.53;2.53;;;;;;;-144.51;100.00;69251.94;5122071;28;20040;-82
2021/10/09 12:11:37;;;;;;;4.13;2.10;;;;;;;-144.51;100.00;69251.94;5119668;28;20043;-83
2021/10/09 12:14:32;;;;;;;5.15;1.90;;;;;;;-144.51;100.00;69251.94;5122964;28;20039;-83
2021/10/09 12:17:20;;;;;;;7.82;1.85;;;;;;;-144.51;100.00;69251.94;5116370;28;20043;-82
2021/10/09 12:20:28;;;;;;;2.50;1.35;;;;;;;-144.51;100.00;69251.94;5120324;28;20036;-83
2021/10/09 12:23:31;;;;;;;3.75;2.00;;;;;;;-144.51;100.00;69251.94;5117812;28;20043;-83
2021/10/09 12:26:18;;;;;;;2.35;1.65;;;;;;;-144.51;100.00;69251.94;5122403;28;20048;-83
2021/10/09 12:29:10;;;;;;;5.53;2.75;;;;;;;-144.51;100.00;69251.94;5116118;28;20051;-83
2021/10/09 12:32:13;;;;;;;5.13;1.67;;;;;;;-144.51;100.00;69251.94;5117138;28;20035;-83
2021/10/09 12:35:05;;;;;;;6.53;1.73;;;;;;;-144.51;100.00;69251.94;5117662;28;20040;-83
2021/10/09 12:37:53;;;;;;;3.92;1.80;;;;;;;-144.51;100.00;69251.94;5113581;28;20031;-83
2021/10/09 12:41:00;;;;;;;4.00;1.50;;;;;;;-144.51;100.00;69251.94;5119304;28;20043;-82
2021/10/09 12:43:45;;;;;;;2.70;1.67;;;;;;;-144.51;100.00;69251.94;5120222;28;20032;-83
2021/10/09 12:46:29;;;;;;;5.63;1.70;;;;;;;-144.51;100.00;69251.94;5120095;22;20044;-62
2021/10/09 12:49:14;;;;;;;7.82;2.00;;;;;;;-144.51;100.00;69251.94;5089249;28;20044;-62
2021/10/09 12:52:18;;;;;;;;;;;;;;;-144.51;100.00;69251.94;5093401;28;20040;-62
2021/10/09 12:55:03;;;;;;;6.82;1.95;;;;;;;-144.51;100.00;69251.94;5091236;28;19912;-61
2021/10/09 12:57:50;;;;;;;3.42;1.35;;;;;;;-144.51;100.00;69251.94;5092870;28;20036;-63
2021/10/09 13:00:37;;;;;;;5.03;2.28;;;;;;;-144.51;100.00;69251.94;5098329;28;20036;-63
2021/10/09 13:03:22;;;;;;;5.60;1.55;;;;;;;-144.51;100.00;69251.94;5095513;28;20475;-63
2021/10/09 13:06:26;;;;;;;;;;;;;;;-144.51;100.00;69251.94;5094719;28;20414;-63
2021/10/09 13:09:12;;;;;;;6.72;1.65;;;;;;;-144.51;100.00;69251.94;5094441;28;19916;-62
2021/10/09 13:11:59;;;;;;;7.63;1.60;;;;;;;-144.51;100.00;69251.94;5090908;28;20040;-63
2021/10/09 13:14:44;;;;;;;3.92;1.73;;;;;;;-144.51;100.00;69251.94;5088571;28;20044;-63
2021/10/09 13:17:29;;;;;;;19.25;2.83;;;;;;;-144.51;100.00;69251.94;5097129;28;20040;-63
2021/10/09 13:20:15;;;;;;;;;;;;;;;-144.51;100.00;69251.94;5094737;28;20036;-63
2021/10/09 13:23:00;;;;;;;7.65;1.38;;;;;;;-144.51;100.00;69251.94;5087587;28;19916;-63
2021/10/09 13:26:03;;;;;;;8.20;1.63;;;;;;;-144.51;100.00;69251.94;5097512;28;20032;-63
2021/10/09 13:28:48;;;;;;;9.85;2.97;;;;;;;-144.51;100.00;69251.94;5095924;28;20032;-63
2021/10/09 13:31:33;;;;;;;5.30;2.00;;;;;;;-144.51;100.00;69251.94;5097911;28;20036;-63
2021/10/09 13:34:18;;;;;;;7.47;1.75;;;;;;;-144.51;100.00;69251.94;5093538;28;20048;-63
2021/10/09 13:37:04;;;;;;;6.07;1.70;;;;;;;-144.51;100.00;69251.94;5093558;28;20052;-63
2021/10/09 13:39:53;;;;;;;2.50;1.95;;;;;;;-144.51;100.00;69251.94;5094374;28;20055;-63
2021/10/09 13:42:37;;;;;;;6.75;2.97;;;;;;;-144.51;100.00;69251.94;5097296;28;20048;-63
2021/10/09 13:45:22;;;;;;;4.60;1.98;;;;;;;-144.51;100.00;69251.94;5093428;28;20040;-63
2021/10/09 13:48:07;;;;;;;;;;;;;;;-144.51;100.00;69251.94;5093991;28;20041;-63
2021/10/09 13:50:53;;;;;;;4.07;1.60;;;;;;;-144.51;100.00;69251.94;5099053;28;19915;-63
2021/10/09 13:53:41;;;;;;;3.58;1.92;;;;;;;-144.51;100.00;69251.94;5093638;28;20044;-63
2021/10/09 13:56:45;;;;;;;3.95;1.67;;;;;;;-144.51;100.00;69251.94;5093772;28;20039;-63
2021/10/09 13:59:30;;;;;;;6.93;1.90;;;;;;;-144.51;100.00;69251.94;5091661;28;20040;-64
2021/10/09 14:02:15;;;;;;;5.72;1.63;;;;;;;-144.51;100.00;69251.94;5095219;28;20035;-63
2021/10/09 14:05:00;;;;;;;3.35;1.63;;;;;;;-144.51;100.00;69251.94;5099517;28;20040;-63
2021/10/09 14:07:45;;;;;;;6.03;1.65;;;;;;;-144.51;100.00;69251.94;5094276;28;20028;-63
2021/10/09 14:10:30;;;;;;;6.10;2.00;;;;;;;-144.51;100.00;69251.94;5092003;28;20411;-63
2021/10/09 14:13:16;;;;;;;3.00;1.40;;;;;;;-144.51;100.00;69251.94;5097644;28;20479;-64
2021/10/09 14:16:01;;;;;;;4.20;1.42;;;;;;;-144.51;100.00;69251.94;5095393;28;20036;-63
2021/10/09 14:19:04;;;;;;;3.83;1.55;;;;;;;-144.51;100.00;69251.94;5094513;28;20480;-63
2021/10/09 14:21:49;;;;;;;6.55;2.08;;;;;;;-144.51;100.00;69251.94;5090879;28;20043;-63
2021/10/09 14:24:34;;;;;;;4.63;1.88;;;;;;;-144.51;100.00;69251.94;5095969;28;20036;-63
2021/10/09 14:27:18;;;;;;;;;;;;;;;-144.51;100.00;69251.94;5091794;28;20044;-63
2021/10/09 14:30:07;;;;;;;5.65;2.38;;;;;;;-144.51;100.00;69251.94;5091880;28;19920;-63
2021/10/09 14:32:52;;;;;;;5.03;1.88;;;;;;;-144.51;100.00;69251.94;5092622;28;20032;-63
2021/10/09 14:35:37;;;;;;;3.38;1.90;;;;;;;-144.51;100.00;69251.94;5094991;28;20040;-63
2021/10/09 14:38:22;;;;;;;6.00;1.70;;;;;;;-144.51;100.00;69251.94;5095354;28;20036;-63
2021/10/09 14:41:07;;;;;;;12.35;2.28;;;;;;;-144.51;100.00;69251.94;5093058;28;20028;-63
2021/10/09 14:43:52;;;;;;;3.20;1.50;;;;;;;-144.51;100.00;69251.94;5096041;28;20091;-63
2021/10/09 14:47:22;;;;;;;3.50;1.48;;;;;;;-144.51;100.00;69251.94;5095139;28;20035;-63
2021/10/09 14:49:48;;;;;;;3.92;1.92;;;;;;;-144.51;100.00;69251.94;5090710;28;20040;-63
2021/10/09 15:19:23;;;;;;;2.38;1.60;;;;;;;-144.51;100.00;69251.94;5088859;28;20048;-62
2021/10/09 15:22:27;;;;;;;8.13;2.13;;;;;;;-144.51;100.00;69251.94;5097841;28;20044;-63
2021/10/09 15:25:31;;;;;;;4.53;1.50;;;;;;;-144.51;100.00;69251.94;5085075;28;20044;-63
2021/10/09 15:28:17;;;;;;;5.85;2.42;;;;;;;-144.51;100.00;69251.94;5090722;28;20488;-63
2021/10/09 15:31:02;;;;;;;6.63;2.10;;;;;;;-144.51;100.00;69251.94;5089627;28;20036;-63
2021/10/09 15:34:06;;;;;;;10.27;2.00;;;;;;;-144.51;100.00;69251.94;5088876;28;20036;-63
2021/10/09 15:36:51;;;;;;;6.85;1.95;;;;;;;-144.51;100.00;69251.94;5090826;28;20044;-62
2021/10/09 15:39:37;;;;;;;4.18;2.88;;;;;;;-144.51;100.00;69251.94;5088866;28;20040;-63
2021/10/09 15:42:21;;;;;;;8.45;2.35;;;;;;;-144.51;100.00;69251.94;5089521;28;20035;-63
2021/10/09 15:45:07;;;;;;;6.43;1.92;;;;;;;-144.51;100.00;69251.94;5092851;28;20040;-63
2021/10/09 15:47:52;;;;;;;2.33;1.30;;;;;;;-144.51;100.00;69251.94;5088536;28;20036;-61
2021/10/09 15:50:56;;;;;;;5.38;1.67;;;;;;;-144.51;100.00;69251.94;5090460;28;20479;-62
2021/10/09 15:53:41;;;;;;;5.65;2.55;;;;;;;-144.51;100.00;69251.94;5094460;28;20043;-62
2021/10/09 15:56:25;;;;;;;;;;;;;;;-144.51;100.00;69251.94;5091499;28;20036;-62
2021/10/09 15:59:10;;;;;;;5.07;2.15;;;;;;;-144.51;100.00;69251.94;5089594;28;19912;-63
2021/10/09 16:01:55;;;;;;;4.18;1.98;;;;;;;-144.51;100.00;69251.94;5093362;28;20032;-62
2021/10/09 16:04:40;;;;;;;10.88;1.85;;;;;;;-144.51;100.00;69251.94;5088259;28;20052;-62